Time;durP1;ratioP1;P1;durP2;ratioP2;P2;SDS_P1;SDS_P2;PMS_P1;PMS_P2;Temp;Humidity;BMP_temperature;BMP_pressure;BME280_temperature;BME280_humidity;BME280_pressure;Samples;Min_cycle;Max_cycle;Signal;HPM_P1;HPM_P2
2022/03/01 00:02:22;;;;;;;13.07;8.52;;;;;;;2.23;56.72;102655.84;4919777;29;20039;-90
2022/03/01 00:04:47;;;;;;;13.57;7.72;;;;;;;2.22;58.41;102663.03;4919970;29;20118;-90
2022/03/01 00:07:12;;;;;;;12.65;7.97;;;;;;;2.19;57.75;102665.09;4919863;29;20027;-90
2022/03/01 00:09:38;;;;;;;11.32;7.43;;;;;;;2.16;58.21;102660.84;4936602;29;20047;-90
2022/03/01 00:12:04;;;;;;;10.63;7.45;;;;;;;2.17;58.26;102683.97;4919370;29;20035;-90
2022/03/01 00:14:32;;;;;;;10.77;7.28;;;;;;;2.12;57.89;102675.41;4919204;29;20111;-89
2022/03/01 00:16:58;;;;;;;10.98;8.05;;;;;;;2.07;58.24;102658.84;4919739;29;20437;-89
2022/03/01 00:19:23;;;;;;;11.45;7.47;;;;;;;2.02;58.66;102659.19;4936406;29;20048;-90
2022/03/01 00:21:51;;;;;;;14.63;8.60;;;;;;;1.99;58.40;102658.56;4919602;29;20040;-89
2022/03/01 00:24:17;;;;;;;12.15;7.70;;;;;;;2.00;58.64;102668.31;4905067;29;20036;-89
2022/03/01 00:26:45;;;;;;;12.27;8.15;;;;;;;1.96;57.01;102661.47;4923915;29;20043;-90
2022/03/01 00:29:10;;;;;;;12.82;8.38;;;;;;;1.97;58.67;102660.50;4923399;29;20035;-88
2022/03/01 00:31:36;;;;;;;13.52;7.78;;;;;;;1.90;58.17;102660.94;4923282;29;20024;-89
2022/03/01 00:34:01;;;;;;;11.98;7.70;;;;;;;1.89;58.69;102661.94;4923321;29;20031;-90
2022/03/01 00:36:27;;;;;;;11.73;7.22;;;;;;;1.87;59.00;102669.19;4923113;29;20202;-89
2022/03/01 00:38:52;;;;;;;12.55;7.72;;;;;;;1.82;59.18;102659.81;4923615;29;20075;-90
2022/03/01 00:41:17;;;;;;;11.55;7.13;;;;;;;1.78;59.75;102669.88;4923466;29;20111;-90
2022/03/01 00:43:43;;;;;;;11.82;6.90;;;;;;;1.72;58.85;102673.88;4923038;29;20059;-90
2022/03/01 00:46:08;;;;;;;9.75;6.68;;;;;;;1.69;59.17;102674.09;4923453;29;20087;-90
2022/03/01 00:48:34;;;;;;;11.18;7.25;;;;;;;1.65;58.42;102669.91;4923423;29;20036;-90
2022/03/01 00:51:03;;;;;;;11.57;7.28;;;;;;;1.65;59.11;102666.41;4907596;29;20380;-89
2022/03/01 00:53:35;;;;;;;11.45;7.18;;;;;;;1.68;58.22;102663.50;4907688;29;20050;-90
2022/03/01 00:56:04;;;;;;;11.00;7.07;;;;;;;1.67;58.56;102668.00;4922754;29;20044;-90
2022/03/01 00:58:30;;;;;;;12.70;7.50;;;;;;;1.70;59.27;102672.28;4923380;29;20084;-90
2022/03/01 01:00:55;;;;;;;11.30;7.22;;;;;;;1.70;58.18;102681.16;4923260;29;20031;-88
2022/03/01 01:03:20;;;;;;;12.30;7.40;;;;;;;1.67;58.32;102670.69;4891875;29;20036;-90
2022/03/01 01:05:46;;;;;;;13.32;8.32;;;;;;;1.71;58.40;102671.31;4907292;29;20090;-90
2022/03/01 01:08:11;;;;;;;13.32;8.05;;;;;;;1.68;57.16;102663.50;4922829;29;20050;-89
2022/03/01 01:10:37;;;;;;;12.90;8.48;;;;;;;1.67;59.12;102661.78;4922783;29;20048;-90
2022/03/01 01:13:02;;;;;;;12.55;7.95;;;;;;;1.68;58.08;102664.38;4922997;29;20031;-89
2022/03/01 01:15:28;;;;;;;11.80;8.15;;;;;;;1.69;59.52;102670.56;4922397;29;20031;-90
2022/03/01 01:17:53;;;;;;;12.55;8.05;;;;;;;1.65;58.96;102659.22;4922789;29;20036;-90
2022/03/01 01:20:19;;;;;;;12.90;7.80;;;;;;;1.68;57.56;102672.41;4922759;29;20457;-90
2022/03/01 01:22:44;;;;;;;12.43;8.10;;;;;;;1.64;59.62;102660.22;4939825;29;20150;-90
2022/03/01 01:25:14;;;;;;;11.98;7.30;;;;;;;1.67;58.09;102661.78;4922476;29;20412;-90
2022/03/01 01:27:41;;;;;;;11.95;7.18;;;;;;;1.65;58.34;102666.41;4922130;29;20045;-90
2022/03/01 01:30:08;;;;;;;11.45;7.78;;;;;;;1.68;59.04;102661.69;4939575;29;20650;-90
2022/03/01 01:32:34;;;;;;;11.45;7.40;;;;;;;1.68;58.61;102661.69;4939653;29;20032;-90
2022/03/01 01:34:59;;;;;;;9.98;7.35;;;;;;;1.73;56.77;102670.22;4906328;29;20179;-90
2022/03/01 01:37:28;;;;;;;14.27;8.10;;;;;;;1.73;58.13;102662.19;4922258;29;20035;-90
2022/03/01 01:39:53;;;;;;;12.57;7.38;;;;;;;1.73;57.27;102661.34;4907115;29;20058;-90
2022/03/01 01:42:19;;;;;;;12.45;7.72;;;;;;;1.81;58.21;102668.81;4922813;29;20528;-90
2022/03/01 01:44:44;;;;;;;12.40;7.47;;;;;;;1.80;58.18;102667.97;4939343;29;20484;-90
2022/03/01 01:47:10;;;;;;;11.57;7.60;;;;;;;1.83;57.63;102662.38;4922241;29;20042;-89
2022/03/01 01:49:35;;;;;;;12.07;7.72;;;;;;;1.85;58.08;102664.94;4922356;29;20035;-90
2022/03/01 01:52:01;;;;;;;11.82;7.85;;;;;;;1.90;57.66;102665.44;4923466;29;20070;-90
2022/03/01 01:54:26;;;;;;;12.80;7.55;;;;;;;1.91;58.24;102664.50;4939422;29;20035;-89
2022/03/01 01:56:52;;;;;;;13.48;7.85;;;;;;;1.92;57.76;102658.19;4938958;29;20095;-90
2022/03/01 01:59:17;;;;;;;12.07;7.28;;;;;;;1.93;57.79;102657.19;4922181;29;20547;-89
2022/03/01 02:01:44;;;;;;;9.95;7.03;;;;;;;1.93;57.79;102651.84;4922285;29;20039;-90
2022/03/01 02:04:10;;;;;;;11.10;7.30;;;;;;;1.93;57.83;102651.84;4906019;29;20085;-90
2022/03/01 02:06:37;;;;;;;11.38;7.72;;;;;;;1.91;57.89;102651.94;4938486;29;20027;-90
2022/03/01 02:09:03;;;;;;;11.32;7.20;;;;;;;1.93;57.27;102655.38;4938544;29;20051;-89
2022/03/01 02:11:29;;;;;;;11.32;7.72;;;;;;;1.90;58.20;102644.03;4906255;29;20063;-90
2022/03/01 02:13:56;;;;;;;9.77;7.05;;;;;;;1.90;56.59;102647.56;4921723;29;20078;-90
2022/03/01 02:16:22;;;;;;;10.95;6.93;;;;;;;1.91;57.27;102640.41;4921708;29;20028;-90
2022/03/01 02:18:49;;;;;;;12.48;7.60;;;;;;;1.88;58.35;102649.50;4921539;29;20107;-90
2022/03/01 02:21:14;;;;;;;11.45;7.00;;;;;;;1.92;56.17;102647.47;4939055;29;20040;-90
2022/03/01 02:23:40;;;;;;;11.20;7.40;;;;;;;1.88;57.27;102645.97;4921264;29;20032;-90
2022/03/01 02:26:05;;;;;;;11.70;7.50;;;;;;;1.88;57.57;102657.53;4921897;29;20034;-89
2022/03/01 02:28:31;;;;;;;10.55;7.22;;;;;;;1.89;56.91;102655.69;4905418;29;20040;-89
2022/03/01 02:30:58;;;;;;;11.38;7.80;;;;;;;1.89;57.34;102650.34;4922404;29;20135;-90
2022/03/01 02:33:24;;;;;;;10.73;7.18;;;;;;;1.92;57.17;102650.16;4921526;29;20043;-90
2022/03/01 02:35:49;;;;;;;12.15;7.60;;;;;;;1.97;57.07;102644.44;4921012;29;20036;-89
2022/03/01 02:38:15;;;;;;;12.27;7.78;;;;;;;1.97;57.48;102636.41;4937948;29;20090;-89
2022/03/01 02:40:40;;;;;;;11.45;7.68;;;;;;;2.02;55.47;102640.47;4921249;29;20464;-90
2022/03/01 02:43:07;;;;;;;10.38;6.88;;;;;;;2.08;56.99;102636.44;4921104;29;20043;-90
2022/03/01 02:45:32;;;;;;;12.05;7.82;;;;;;;2.14;56.46;102636.00;4905113;29;20034;-90
2022/03/01 02:47:57;;;;;;;13.00;7.68;;;;;;;2.19;56.82;102635.66;4937535;29;20036;-89
2022/03/01 02:50:23;;;;;;;10.93;7.60;;;;;;;2.22;56.36;102627.38;4937744;29;20114;-89
2022/03/01 02:52:48;;;;;;;13.05;8.27;;;;;;;2.28;55.94;102633.09;4905965;29;20031;-90
2022/03/01 02:55:16;;;;;;;12.18;8.02;;;;;;;2.31;56.33;102628.50;4921159;29;20034;-89
2022/03/01 02:57:42;;;;;;;12.70;7.53;;;;;;;2.31;56.22;102615.94;4905443;29;20035;-90
2022/03/01 03:00:10;;;;;;;10.85;7.18;;;;;;;2.36;55.87;102623.63;4920854;29;20062;-89
2022/03/01 03:02:35;;;;;;;11.75;7.70;;;;;;;2.39;55.53;102621.59;4921237;29;20091;-90
2022/03/01 03:05:01;;;;;;;14.70;8.80;;;;;;;2.38;55.45;102625.22;4937884;29;20516;-90
2022/03/01 03:07:29;;;;;;;13.80;8.50;;;;;;;2.44;55.63;102626.59;4889505;29;20114;-90
2022/03/01 03:09:54;;;;;;;12.95;7.80;;;;;;;2.42;55.48;102621.34;4920584;29;20059;-89
2022/03/01 03:12:20;;;;;;;14.18;8.52;;;;;;;2.42;55.55;102620.47;4905022;29;20032;-89
2022/03/01 03:14:45;;;;;;;13.35;8.23;;;;;;;2.45;55.37;102621.09;4920844;29;20429;-89
2022/03/01 03:17:11;;;;;;;11.80;7.63;;;;;;;2.47;55.53;102629.03;4904754;29;20408;-90
2022/03/01 03:19:37;;;;;;;12.35;7.50;;;;;;;2.44;54.90;102622.06;4889537;29;20039;-90
2022/03/01 03:22:06;;;;;;;12.82;8.18;;;;;;;2.44;55.82;102618.56;4937516;29;20038;-89
2022/03/01 03:24:32;;;;;;;11.77;7.68;;;;;;;2.43;55.31;102628.41;4937323;29;20537;-89
2022/03/01 03:26:57;;;;;;;11.85;7.50;;;;;;;2.41;55.63;102633.03;4920228;29;20115;-89
2022/03/01 03:29:23;;;;;;;11.30;7.22;;;;;;;2.39;55.31;102624.28;4920380;29;20035;-89
2022/03/01 03:31:49;;;;;;;11.60;7.20;;;;;;;2.41;55.27;102619.63;4937155;29;20107;-89
2022/03/01 03:34:14;;;;;;;9.88;7.07;;;;;;;2.37;55.10;102617.31;4904643;29;20032;-89
2022/03/01 03:36:43;;;;;;;12.48;7.68;;;;;;;2.37;55.89;102620.00;4904348;29;20464;-89
2022/03/01 03:39:12;;;;;;;11.73;7.47;;;;;;;2.33;55.28;102618.50;4920143;29;20038;-89
2022/03/01 03:41:38;;;;;;;11.73;7.32;;;;;;;2.32;56.34;102627.50;4937132;29;20039;-89
2022/03/01 03:44:03;;;;;;;11.82;7.50;;;;;;;2.31;55.33;102618.63;4904460;29;20420;-89
2022/03/01 03:46:29;;;;;;;9.85;7.13;;;;;;;2.31;55.96;102623.16;4919847;29;20138;-90
2022/03/01 03:48:55;;;;;;;11.00;6.68;;;;;;;2.28;55.77;102621.56;4937036;29;20039;-89
2022/03/01 03:51:20;;;;;;;11.40;6.30;;;;;;;2.27;55.80;102618.03;4904225;29;20071;-89
2022/03/01 03:53:47;;;;;;;11.15;6.78;;;;;;;2.30;55.47;102622.28;4920205;29;20047;-89
2022/03/01 03:56:12;;;;;;;11.00;6.97;;;;;;;2.27;55.53;102618.03;4919820;29;20039;-90
2022/03/01 03:58:38;;;;;;;11.05;7.28;;;;;;;2.28;56.24;102622.41;4919337;29;20448;-89
2022/03/01 04:01:06;;;;;;;12.88;7.15;;;;;;;2.28;55.33;102621.56;4920540;29;20032;-89
2022/03/01 04:03:32;;;;;;;10.52;7.32;;;;;;;2.30;55.51;102626.78;4919717;29;20465;-89
2022/03/01 04:05:58;;;;;;;9.38;6.72;;;;;;;2.25;55.29;102614.59;4904771;29;20100;-90
2022/03/01 04:08:24;;;;;;;10.60;6.95;;;;;;;2.29;55.07;102617.91;4919505;29;20028;-88
2022/03/01 04:10:49;;;;;;;11.10;7.13;;;;;;;2.29;55.49;102623.25;4936882;29;20112;-89
2022/03/01 04:13:15;;;;;;;10.23;7.10;;;;;;;2.29;56.25;102625.94;4936703;29;20091;-89
2022/03/01 04:15:40;;;;;;;12.98;7.60;;;;;;;2.31;55.96;102624.00;4904143;29;20055;-89
2022/03/01 04:18:09;;;;;;;13.45;8.27;;;;;;;2.36;54.38;102627.19;4920086;29;20123;-89
2022/03/01 04:20:34;;;;;;;11.75;7.68;;;;;;;2.34;55.22;102620.22;4919789;29;20032;-89
2022/03/01 04:23:00;;;;;;;13.57;7.50;;;;;;;2.36;55.24;102624.50;4920254;29;20042;-89
2022/03/01 04:25:25;;;;;;;10.13;6.65;;;;;;;2.37;55.05;102622.66;4937510;29;20030;-90
2022/03/01 04:27:51;;;;;;;11.48;7.60;;;;;;;2.39;55.47;102624.28;4919634;29;20035;-89
2022/03/01 04:30:17;;;;;;;12.70;7.25;;;;;;;2.38;55.63;102622.56;4919816;29;20497;-90
2022/03/01 04:32:45;;;;;;;12.65;7.63;;;;;;;2.43;54.35;102630.22;4919595;29;20122;-89
2022/03/01 04:35:11;;;;;;;11.32;7.28;;;;;;;2.46;55.20;102630.84;4920623;29;20078;-89
2022/03/01 04:37:38;;;;;;;11.70;7.32;;;;;;;2.46;54.75;102628.16;4919255;29;20392;-88
2022/03/01 04:40:06;;;;;;;9.70;6.72;;;;;;;2.50;54.72;102633.31;4919177;29;20036;-89
2022/03/01 04:42:32;;;;;;;10.30;7.13;;;;;;;2.50;54.99;102636.00;4919531;29;20051;-88
2022/03/01 04:45:00;;;;;;;11.07;6.88;;;;;;;2.53;54.63;102631.22;4919291;29;20040;-87
2022/03/01 04:47:26;;;;;;;9.82;6.57;;;;;;;2.55;53.89;102628.44;4937087;29;20166;-88
2022/03/01 04:49:51;;;;;;;10.20;6.93;;;;;;;2.61;54.60;102633.31;4904408;29;20119;-89
2022/03/01 04:52:17;;;;;;;10.30;7.15;;;;;;;2.60;54.55;102623.59;4936251;29;20036;-88
2022/03/01 04:54:42;;;;;;;12.75;7.55;;;;;;;2.69;52.96;102627.34;4903309;29;20031;-89
2022/03/01 04:57:10;;;;;;;11.57;7.25;;;;;;;2.70;53.10;102621.91;4903694;29;20040;-89
2022/03/01 04:59:36;;;;;;;9.80;6.80;;;;;;;2.72;54.64;102619.94;4919048;29;20031;-89
2022/03/01 05:02:02;;;;;;;10.70;6.97;;;;;;;2.74;53.89;102619.81;4903776;29;20032;-89
2022/03/01 05:04:27;;;;;;;10.88;7.10;;;;;;;2.78;53.27;102616.75;4919466;29;20531;-89
2022/03/01 05:06:53;;;;;;;11.02;7.57;;;;;;;2.80;53.76;102613.97;4903398;29;20058;-89
2022/03/01 05:09:21;;;;;;;10.38;7.13;;;;;;;2.81;54.25;102621.03;4936042;29;20047;-89
2022/03/01 05:11:47;;;;;;;12.93;7.45;;;;;;;2.83;53.74;102627.13;4922267;29;20043;-89
2022/03/01 05:14:13;;;;;;;12.80;7.72;;;;;;;2.81;53.52;102613.84;4906997;29;20039;-89
2022/03/01 05:16:38;;;;;;;11.55;7.28;;;;;;;2.80;53.55;102616.66;4922478;29;20099;-89
2022/03/01 05:19:04;;;;;;;11.45;7.30;;;;;;;2.79;53.74;102614.94;4939682;29;20031;-89
2022/03/01 05:21:30;;;;;;;12.45;7.40;;;;;;;2.82;53.65;102620.06;4907828;29;20043;-89
2022/03/01 05:23:55;;;;;;;13.00;8.13;;;;;;;2.79;53.94;102614.94;4940014;29;20031;-90
2022/03/01 05:26:21;;;;;;;10.90;7.68;;;;;;;2.77;53.44;102606.16;4891767;29;20475;-89
2022/03/01 05:28:46;;;;;;;11.48;7.72;;;;;;;2.79;53.60;102590.81;4922334;29;20063;-90
2022/03/01 05:31:12;;;;;;;14.77;8.40;;;;;;;2.87;53.28;102587.53;4906793;29;20047;-90
2022/03/01 05:33:37;;;;;;;13.80;8.00;;;;;;;2.86;52.99;102593.88;4922428;29;20461;-90
2022/03/01 05:36:03;;;;;;;13.70;8.30;;;;;;;2.85;53.66;102584.97;4922726;29;20118;-90
2022/03/01 05:38:30;;;;;;;13.73;8.38;;;;;;;2.87;53.69;102592.91;4922373;29;20047;-90
2022/03/01 05:40:55;;;;;;;13.02;8.55;;;;;;;2.89;52.71;102590.94;4907025;29;20036;-90
2022/03/01 05:43:21;;;;;;;13.93;8.98;;;;;;;2.89;53.53;102582.88;4906601;29;20039;-90
2022/03/01 05:45:46;;;;;;;13.85;8.27;;;;;;;2.84;53.73;102575.22;4921926;29;20032;-89
2022/03/01 05:48:12;;;;;;;13.80;8.80;;;;;;;2.87;52.87;102584.84;4922613;29;20118;-89
2022/03/01 05:50:40;;;;;;;14.57;8.52;;;;;;;2.82;53.52;102585.22;4906180;29;20499;-88
2022/03/01 05:53:06;;;;;;;13.18;8.55;;;;;;;2.78;53.94;102579.22;4939271;29;20030;-89
2022/03/01 05:55:33;;;;;;;14.88;8.63;;;;;;;2.79;54.35;102590.81;4938761;29;20469;-89
2022/03/01 05:58:01;;;;;;;13.38;8.13;;;;;;;2.72;54.23;102587.75;4922431;29;20071;-89
2022/03/01 06:00:27;;;;;;;14.45;8.30;;;;;;;2.67;54.18;102586.41;4921376;29;20043;-89
2022/03/01 06:02:52;;;;;;;13.05;8.27;;;;;;;2.60;54.27;102578.88;4921982;29;20038;-89
2022/03/01 06:05:18;;;;;;;12.93;7.97;;;;;;;2.61;53.73;102588.63;4906248;29;20433;-89
2022/03/01 06:07:44;;;;;;;13.35;8.48;;;;;;;2.58;54.62;102580.81;4921524;29;20031;-89
2022/03/01 06:10:10;;;;;;;11.75;8.20;;;;;;;2.56;54.71;102588.13;4921126;29;20051;-89
2022/03/01 06:12:35;;;;;;;11.95;7.68;;;;;;;2.52;54.42;102573.25;4921694;29;20027;-88
2022/03/01 06:15:02;;;;;;;11.40;7.70;;;;;;;2.52;53.90;102583.13;4921765;29;20023;-89
2022/03/01 06:17:27;;;;;;;14.85;8.63;;;;;;;2.51;54.10;102573.38;4938599;29;20111;-89
2022/03/01 06:19:53;;;;;;;11.25;7.80;;;;;;;2.45;54.51;102580.03;4905799;29;20039;-86
2022/03/01 06:22:19;;;;;;;13.68;7.82;;;;;;;2.46;55.27;102582.59;4921335;29;20134;-85
2022/03/01 06:24:45;;;;;;;12.52;8.98;;;;;;;2.45;54.92;102572.00;4906882;29;20031;-92
2022/03/01 06:27:10;;;;;;;12.00;8.10;;;;;;;2.48;54.31;102584.31;4938622;29;20488;-90
2022/03/01 06:29:37;;;;;;;13.88;8.43;;;;;;;2.45;54.62;102580.03;4921898;29;20051;-93
2022/03/01 06:32:03;;;;;;;11.25;7.32;;;;;;;2.45;55.09;102588.97;4922024;29;20043;-91
2022/03/01 06:34:30;;;;;;;12.43;7.32;;;;;;;2.44;55.34;102595.28;4921586;29;20503;-91
2022/03/01 06:36:56;;;;;;;13.07;8.10;;;;;;;2.48;54.88;102600.41;4921790;29;20126;-86
2022/03/01 06:39:21;;;;;;;9.85;6.57;;;;;;;2.50;54.86;102606.50;4938213;29;20060;-87
2022/03/01 06:41:47;;;;;;;11.40;7.65;;;;;;;2.50;54.90;102606.50;4938587;29;20039;-87
2022/03/01 06:44:12;;;;;;;12.63;7.93;;;;;;;2.57;54.18;102615.75;4937766;29;20041;-87
2022/03/01 06:46:38;;;;;;;12.60;7.90;;;;;;;2.58;54.50;102606.75;4889529;29;20183;-88
2022/03/01 06:49:03;;;;;;;14.10;8.27;;;;;;;2.66;54.70;102608.81;4920890;29;20066;-87
2022/03/01 06:51:29;;;;;;;12.05;7.95;;;;;;;2.75;54.76;102617.00;4905683;29;20130;-86
2022/03/01 06:53:55;;;;;;;13.57;8.18;;;;;;;2.83;54.05;102616.41;4937581;29;20491;-87
2022/03/01 06:56:20;;;;;;;12.15;8.30;;;;;;;2.89;53.95;102615.06;4937219;29;20063;-87
2022/03/01 06:58:48;;;;;;;12.65;7.75;;;;;;;2.97;54.11;102628.72;4920679;29;20058;-86
2022/03/01 07:01:14;;;;;;;13.13;8.20;;;;;;;3.04;54.36;102621.03;4920916;29;20039;-86
2022/03/01 07:03:39;;;;;;;12.57;8.32;;;;;;;3.15;52.97;102624.56;4905269;29;20039;-87
2022/03/01 07:06:05;;;;;;;14.88;9.10;;;;;;;3.19;53.92;102624.31;4920551;29;20390;-86
2022/03/01 07:08:31;;;;;;;14.18;8.93;;;;;;;3.26;54.01;102618.34;4920068;29;20032;-87
2022/03/01 07:10:58;;;;;;;17.20;10.25;;;;;;;3.33;54.08;102622.22;4919944;29;20404;-86
2022/03/01 07:13:24;;;;;;;16.00;10.13;;;;;;;3.41;54.01;102629.69;4904332;29;20083;-86
2022/03/01 07:15:49;;;;;;;14.45;9.25;;;;;;;3.46;53.76;102632.81;4920398;29;20108;-86
2022/03/01 07:18:14;;;;;;;14.07;9.13;;;;;;;3.50;53.75;102623.56;4888793;29;20071;-86
2022/03/01 07:20:43;;;;;;;13.80;9.50;;;;;;;3.58;53.59;102614.03;4920238;29;20051;-87
2022/03/01 07:23:09;;;;;;;15.82;10.23;;;;;;;3.61;53.56;102609.25;4919652;29;20027;-87
2022/03/01 07:25:35;;;;;;;16.58;10.52;;;;;;;3.69;53.26;102622.03;4920161;29;20502;-86
2022/03/01 07:28:01;;;;;;;15.73;10.27;;;;;;;3.73;52.75;102622.66;4904017;29;20039;-86
2022/03/01 07:30:27;;;;;;;15.20;9.82;;;;;;;3.80;53.15;102624.69;4919573;29;20028;-87
2022/03/01 07:32:55;;;;;;;16.88;10.18;;;;;;;3.88;52.64;102632.09;4936661;29;20028;-87
2022/03/01 07:35:21;;;;;;;17.10;10.75;;;;;;;3.94;52.88;102630.75;4937001;29;20031;-87
2022/03/01 07:37:47;;;;;;;17.25;10.48;;;;;;;3.98;52.44;102630.34;4919954;29;20035;-86
2022/03/01 07:40:14;;;;;;;17.90;10.25;;;;;;;4.07;52.11;102633.25;4919740;29;20118;-86
2022/03/01 07:42:40;;;;;;;15.82;9.65;;;;;;;4.14;52.03;102653.25;4936738;29;20059;-86
2022/03/01 07:45:06;;;;;;;16.95;10.38;;;;;;;4.22;51.14;102651.63;4919621;29;20039;-86
2022/03/01 07:47:32;;;;;;;17.00;11.32;;;;;;;4.20;51.32;102647.38;4904032;29;20094;-86
2022/03/01 07:49:58;;;;;;;18.15;10.63;;;;;;;4.27;50.97;102647.72;4936454;29;20039;-86
2022/03/01 07:52:23;;;;;;;16.35;10.32;;;;;;;4.25;51.45;102634.38;4903871;29;20032;-86
2022/03/01 07:54:49;;;;;;;15.75;10.07;;;;;;;4.26;51.64;102633.41;4919759;29;20048;-87
2022/03/01 07:57:16;;;;;;;15.80;10.45;;;;;;;4.31;51.56;102627.63;4919486;29;20185;-87
2022/03/01 07:59:41;;;;;;;16.98;10.98;;;;;;;4.31;51.00;102625.81;4936273;29;20384;-87
2022/03/01 08:02:07;;;;;;;17.02;10.73;;;;;;;4.31;51.18;102625.81;4919481;29;20028;-87
2022/03/01 08:04:33;;;;;;;18.85;10.75;;;;;;;4.29;50.95;102625.09;4920150;29;20034;-86
2022/03/01 08:06:58;;;;;;;15.80;10.00;;;;;;;4.35;51.20;102639.84;4903583;29;20042;-86
2022/03/01 08:09:24;;;;;;;14.60;9.60;;;;;;;4.37;50.91;102633.38;4919396;29;20155;-86
2022/03/01 08:11:50;;;;;;;13.05;8.85;;;;;;;4.47;50.90;102636.09;4919395;29;20134;-87
2022/03/01 08:14:15;;;;;;;14.57;9.38;;;;;;;4.58;50.53;102640.56;4904680;29;20054;-87
2022/03/01 08:16:43;;;;;;;16.45;10.63;;;;;;;4.78;50.45;102643.38;4903647;29;20376;-86
2022/03/01 08:19:09;;;;;;;16.15;10.52;;;;;;;4.80;49.93;102639.56;4919592;29;20383;-87
2022/03/01 08:21:34;;;;;;;17.58;10.73;;;;;;;4.85;50.25;102631.09;4919048;29;20036;-87
2022/03/01 08:24:00;;;;;;;17.33;10.02;;;;;;;4.95;49.84;102645.44;4903495;29;20099;-86
2022/03/01 08:26:26;;;;;;;15.10;9.68;;;;;;;5.03;50.21;102636.69;4919929;29;20032;-86
2022/03/01 08:28:51;;;;;;;15.35;9.93;;;;;;;5.10;49.91;102646.78;4919552;29;20059;-87
2022/03/01 08:31:17;;;;;;;13.63;8.50;;;;;;;5.23;49.58;102651.94;4903632;29;20044;-87
2022/03/01 08:33:43;;;;;;;14.65;9.65;;;;;;;5.38;48.79;102652.41;4903382;29;20046;-87
2022/03/01 08:36:11;;;;;;;14.65;9.75;;;;;;;5.42;48.86;102651.16;4918523;29;20032;-87
2022/03/01 08:38:37;;;;;;;16.15;10.07;;;;;;;5.56;48.75;102649.06;4936262;29;20035;-87
2022/03/01 08:41:02;;;;;;;13.48;8.77;;;;;;;5.61;48.84;102647.66;4887802;29;20039;-86
2022/03/01 08:43:28;;;;;;;14.07;9.30;;;;;;;5.71;48.85;102660.28;4936165;29;20492;-87
2022/03/01 08:45:53;;;;;;;17.17;10.30;;;;;;;5.84;48.57;102658.19;4920662;29;20126;-87
2022/03/01 08:48:19;;;;;;;14.25;9.43;;;;;;;5.96;47.53;102662.47;4922941;29;20046;-87
2022/03/01 08:50:44;;;;;;;14.27;9.00;;;;;;;6.15;47.88;102663.50;4922503;29;20043;-87
2022/03/01 08:53:13;;;;;;;14.15;9.35;;;;;;;6.25;46.94;102671.59;4939456;29;20060;-87
2022/03/01 08:55:39;;;;;;;13.15;8.88;;;;;;;6.27;47.17;102673.13;4939426;29;20044;-87
2022/03/01 08:58:05;;;;;;;14.57;8.70;;;;;;;6.48;46.74;102664.03;4906622;29;20051;-87
2022/03/01 09:00:31;;;;;;;14.60;8.98;;;;;;;6.63;46.79;102673.41;4906486;29;20043;-86
2022/03/01 09:02:57;;;;;;;12.63;8.80;;;;;;;6.76;46.30;102672.22;4922541;29;20126;-86
2022/03/01 09:05:26;;;;;;;13.40;9.15;;;;;;;7.03;45.91;102679.56;4922404;29;20039;-87
2022/03/01 09:07:51;;;;;;;12.82;8.88;;;;;;;7.11;45.52;102681.50;4939473;29;20038;-86
2022/03/01 09:10:22;;;;;;;11.57;8.00;;;;;;;7.18;45.64;102686.16;4921767;29;20134;-87
2022/03/01 09:12:57;;;;;;;11.13;7.90;;;;;;;7.17;46.16;102684.44;4907265;29;20048;-86
2022/03/01 09:15:26;;;;;;;13.43;8.95;;;;;;;7.24;44.55;102679.31;4939743;29;20047;-87
2022/03/01 09:17:51;;;;;;;10.98;8.00;;;;;;;7.40;45.24;102673.28;4922847;29;20054;-89
2022/03/01 09:20:19;;;;;;;12.23;8.40;;;;;;;7.59;45.05;102657.97;4922307;29;20481;-87
2022/03/01 09:22:48;;;;;;;14.52;8.52;;;;;;;7.76;44.54;102665.25;4922654;29;20036;-85
2022/03/01 09:25:13;;;;;;;13.70;8.95;;;;;;;7.74;44.14;102667.28;4906389;29;20039;-86
2022/03/01 09:27:39;;;;;;;14.13;9.43;;;;;;;7.73;43.87;102661.00;4906412;29;20028;-86
2022/03/01 09:30:05;;;;;;;14.73;9.20;;;;;;;7.82;44.18;102664.63;4922126;29;20099;-87
2022/03/01 09:32:31;;;;;;;12.82;8.45;;;;;;;7.84;43.79;102669.88;4922105;29;20046;-86
2022/03/01 09:34:57;;;;;;;13.88;9.48;;;;;;;7.78;43.56;102667.81;4922426;29;20036;-86
2022/03/01 09:37:23;;;;;;;15.88;10.02;;;;;;;7.66;43.60;102661.75;4939737;29;20039;-87
2022/03/01 09:39:48;;;;;;;17.05;10.65;;;;;;;7.88;43.32;102657.78;4922061;29;20047;-85
2022/03/01 09:42:14;;;;;;;15.25;10.00;;;;;;;8.02;43.09;102654.53;4906835;29;20028;-85
2022/03/01 09:44:41;;;;;;;15.95;10.68;;;;;;;8.08;42.14;102664.75;4922437;29;20464;-84
2022/03/01 09:47:06;;;;;;;13.70;9.35;;;;;;;8.08;42.60;102680.13;4921542;29;20086;-84
2022/03/01 09:49:32;;;;;;;13.25;9.07;;;;;;;8.05;42.46;102685.84;4921732;29;20036;-86
2022/03/01 09:51:57;;;;;;;15.27;9.80;;;;;;;7.98;43.06;102685.59;4905947;29;20066;-86
2022/03/01 09:54:23;;;;;;;13.05;8.93;;;;;;;8.07;42.91;102684.69;4921494;29;20046;-85
2022/03/01 09:56:49;;;;;;;13.55;8.95;;;;;;;8.08;42.78;102680.13;4938340;29;20453;-86
2022/03/01 09:59:15;;;;;;;12.60;8.80;;;;;;;8.19;42.30;102676.31;4921655;29;20460;-86
2022/03/01 10:01:50;;;;;;;13.05;8.73;;;;;;;8.25;42.80;102686.50;4906274;29;20036;-85
2022/03/01 10:04:16;;;;;;;13.75;9.27;;;;;;;8.31;42.23;102687.75;4938786;29;20040;-86
2022/03/01 10:06:44;;;;;;;14.00;9.60;;;;;;;8.08;41.96;102690.94;4921757;29;20031;-85
2022/03/01 10:09:24;;;;;;;14.23;9.57;;;;;;;7.85;42.41;102685.97;4921298;29;20028;-87
2022/03/01 10:11:51;;;;;;;15.90;10.10;;;;;;;7.95;42.52;102691.31;4935145;29;20053;-86
2022/03/01 10:14:31;;;;;;;15.52;9.98;;;;;;;7.97;42.74;102692.00;4938388;29;20413;-86
2022/03/01 10:16:57;;;;;;;15.15;10.02;;;;;;;8.06;42.52;102695.63;4890832;29;20043;-86
2022/03/01 10:19:23;;;;;;;14.13;9.20;;;;;;;8.24;42.35;102684.84;4921335;29;20036;-86
2022/03/01 10:21:59;;;;;;;14.05;9.32;;;;;;;8.59;41.69;102683.13;4921336;29;20046;-87
2022/03/01 10:24:24;;;;;;;13.77;9.30;;;;;;;8.74;42.00;102673.44;4921616;29;20470;-86
2022/03/01 10:26:56;;;;;;;12.50;8.05;;;;;;;8.76;41.84;102673.28;4905135;29;20141;-87
2022/03/01 10:29:26;;;;;;;12.25;8.75;;;;;;;8.82;41.36;102677.22;4937971;29;20032;-87
2022/03/01 10:31:52;;;;;;;12.25;8.85;;;;;;;8.80;41.47;102671.97;4921325;29;20099;-87
2022/03/01 10:34:18;;;;;;;11.02;7.80;;;;;;;9.14;40.58;102668.44;4921291;29;20040;-86
2022/03/01 10:36:49;;;;;;;11.57;8.38;;;;;;;9.55;40.37;102665.91;4937897;29;20050;-87
2022/03/01 10:39:28;;;;;;;12.77;8.57;;;;;;;10.15;40.07;102664.81;4920564;29;20401;-86
2022/03/01 10:41:54;;;;;;;12.07;8.27;;;;;;;10.78;38.01;102658.91;4921617;29;20054;-87
2022/03/01 10:44:21;;;;;;;11.75;8.50;;;;;;;11.21;37.63;102662.19;4921211;29;20444;-87
2022/03/01 10:46:56;;;;;;;14.18;9.27;;;;;;;11.52;36.54;102664.94;4920544;29;20033;-87
2022/03/01 10:49:31;;;;;;;11.82;8.18;;;;;;;11.62;37.54;102662.00;4920706;29;20028;-87
2022/03/01 10:51:59;;;;;;;13.40;8.65;;;;;;;11.80;36.01;102661.75;4937662;29;20031;-87
2022/03/01 10:54:32;;;;;;;14.10;8.98;;;;;;;11.55;35.91;102667.31;4937411;29;20115;-87
2022/03/01 10:56:59;;;;;;;12.13;8.35;;;;;;;11.49;36.02;102670.72;4920416;29;20071;-87
2022/03/01 10:59:26;;;;;;;10.90;7.80;;;;;;;11.97;35.75;102680.69;4920206;29;20023;-87
2022/03/01 11:01:52;;;;;;;10.65;7.70;;;;;;;12.26;35.13;102680.81;4920707;29;20039;-87
2022/03/01 11:04:21;;;;;;;12.13;7.93;;;;;;;12.59;34.78;102675.13;4920116;29;20027;-87
2022/03/01 11:06:48;;;;;;;11.35;8.00;;;;;;;12.46;34.10;102669.47;4937852;29;20460;-87
2022/03/01 11:09:14;;;;;;;10.88;7.53;;;;;;;11.91;35.06;102676.78;4936521;29;20036;-87
2022/03/01 11:11:40;;;;;;;12.15;8.15;;;;;;;11.65;35.61;102677.09;4937940;29;20461;-87
2022/03/01 11:14:08;;;;;;;13.18;8.77;;;;;;;11.28;35.67;102679.50;4904348;29;20044;-87
2022/03/01 11:16:56;;;;;;;11.90;8.35;;;;;;;11.19;36.37;102677.81;4937007;29;20031;-87
2022/03/01 11:19:36;;;;;;;10.75;7.68;;;;;;;11.51;37.18;102684.97;4920240;29;20031;-87
2022/03/01 11:22:01;;;;;;;12.13;8.32;;;;;;;11.32;36.21;102680.81;4937290;29;20023;-87